Portada
METAR-TAF:

METAR-TAF

Aeropuertos :

Aeropuerto Cherif Al Idrissi

Alhucemas, Marruecos

latitud: 35-11N, longitud: 003-51W, altitud: 27 m

Observación

El informe se hizo hace 19 minutos, a las 22:00 UTC
Viento 4 kt del sureste
Temperatura 14°C
Humedad 94%
Presión 1011 hPa
Visibilidad 10 km o más
sin nubes por debajo de 1500 m y sin presencia de cumulonimbus.

METAR: GMTA 312200Z 14004KT CAVOK 14/13 Q1011 NOSIG

Hora: 23:19 (22:19 UTC)

Pronóstico

El informe se hizo hace 5 horas y 19 minutos, a las 17:00 UTC
Pronóstico válido del 31 a las 18 UTC al 01 a las 24 UTC
Viento 2 kt con dirección variable
Visibilidad 10 km o más
Nubes dispersas a una altura de 2000 ft
Nubes dispersas a una altura de 2600 ft
Probabilidad 30% :
Temporalmente
del 31 a las 18 UTC al 31 a las 24 UTC
Visibilidad: 5000 m
lluvia ligera

TAF: GMTA 311700Z 3118/0124 VRB02KT 9999 SCT020 SCT026 PROB30 TEMPO 3118/3124 5000 -RA

Observaciones y pronósticos meteorológicos de más de 4000 aeropuertos (mensajes METAR y TAF).

Los puntos amarillos y rojos representan las estaciones disponibles.

Ponga el ratón en el punto deseado para ver el nombre de la estación.

Haga clic para ver las observaciones y los pronósticos meteorológicos.

Para cambiar el mapa : haga clic en los botones verdes con una cruz de color negro para hacer un zoom, en el botón verde con un guión para alejar o en las flechas verdes para mapas adyacentes.


METAR-TAF: